Time;durP1;ratioP1;P1;durP2;ratioP2;P2;SDS_P1;SDS_P2;PMS_P1;PMS_P2;Temp;Humidity;BMP_temperature;BMP_pressure;BME280_temperature;BME280_humidity;BME280_pressure;Samples;Min_cycle;Max_cycle;Signal;HPM_P1;HPM_P2
2021/08/11 00:01:15;;;;;;;7.78;4.10;;;;;;;;;;4888141;29;20028;-80
2021/08/11 00:03:41;;;;;;;5.88;4.13;;;;;;;;;;4877246;29;20757;-80
2021/08/11 00:06:06;;;;;;;9.10;4.68;;;;;;;;;;4881832;29;20029;-80
2021/08/11 00:08:31;;;;;;;8.20;4.35;;;;;;;;;;4883184;29;20480;-80
2021/08/11 00:10:57;;;;;;;9.77;4.43;;;;;;;;;;4881360;29;20024;-79
2021/08/11 00:13:23;;;;;;;5.95;3.85;;;;;;;;;;4887130;29;20028;-80
2021/08/11 00:15:48;;;;;;;9.77;4.30;;;;;;;;;;4884350;29;20120;-80
2021/08/11 00:18:14;;;;;;;8.55;4.03;;;;;;;;;;4886150;29;20032;-78
2021/08/11 00:20:40;;;;;;;8.88;3.65;;;;;;;;;;4887547;29;20027;-79
2021/08/11 00:23:05;;;;;;;9.60;4.45;;;;;;;;;;4888192;29;20024;-81
2021/08/11 00:25:30;;;;;;;6.00;4.05;;;;;;;;;;4880396;29;20017;-80
2021/08/11 00:27:56;;;;;;;7.93;4.05;;;;;;;;;;4870691;29;20021;-80
2021/08/11 00:30:21;;;;;;;7.77;4.33;;;;;;;;;;4882619;29;20065;-80
2021/08/11 00:32:46;;;;;;;7.67;4.60;;;;;;;;;;4885484;29;20017;-81
2021/08/11 00:35:11;;;;;;;7.40;4.00;;;;;;;;;;4879421;29;20272;-80
2021/08/11 00:37:37;;;;;;;5.28;3.83;;;;;;;;;;4879801;29;20017;-81
2021/08/11 00:40:04;;;;;;;9.43;4.43;;;;;;;;;;4883231;29;20029;-78
2021/08/11 00:42:29;;;;;;;7.32;4.40;;;;;;;;;;4884814;29;20775;-80
2021/08/11 00:44:54;;;;;;;8.55;4.53;;;;;;;;;;4885272;29;20112;-80
2021/08/11 00:47:21;;;;;;;7.67;4.23;;;;;;;;;;4890664;29;20088;-80
2021/08/11 00:49:46;;;;;;;8.45;4.28;;;;;;;;;;4884160;29;20356;-81
2021/08/11 00:52:11;;;;;;;5.30;4.20;;;;;;;;;;4884138;29;20028;-80
2021/08/11 00:54:37;;;;;;;6.65;4.00;;;;;;;;;;4885787;29;20047;-80
2021/08/11 00:57:04;;;;;;;8.30;3.80;;;;;;;;;;4879428;29;20063;-80
2021/08/11 00:59:33;;;;;;;8.02;4.22;;;;;;;;;;4873989;29;20384;-79
2021/08/11 01:01:58;;;;;;;9.10;3.95;;;;;;;;;;4880109;29;20513;-80
2021/08/11 01:04:24;;;;;;;7.20;4.32;;;;;;;;;;4880983;29;20041;-79
2021/08/11 01:06:50;;;;;;;5.82;3.65;;;;;;;;;;4887522;29;20028;-79
2021/08/11 01:09:16;;;;;;;9.95;4.35;;;;;;;;;;4886333;29;20089;-80
2021/08/11 01:11:45;;;;;;;8.38;3.92;;;;;;;;;;4884479;29;20036;-79
2021/08/11 01:14:12;;;;;;;6.25;3.55;;;;;;;;;;4885227;29;20032;-79
2021/08/11 01:16:37;;;;;;;7.00;3.90;;;;;;;;;;4883770;29;20452;-80
2021/08/11 01:19:02;;;;;;;5.03;3.73;;;;;;;;;;4877335;29;20057;-79
2021/08/11 01:21:30;;;;;;;7.10;3.90;;;;;;;;;;4881296;29;20268;-78
2021/08/11 01:24:07;;;;;;;7.38;4.90;;;;;;;;;;4881052;29;20677;-79
2021/08/11 01:26:41;;;;;;;6.88;4.22;;;;;;;;;;4874891;29;20421;-80
2021/08/11 01:29:10;;;;;;;5.68;3.65;;;;;;;;;;4882071;29;20029;-80
2021/08/11 01:31:42;;;;;;;6.68;3.78;;;;;;;;;;4888630;29;20035;-79
2021/08/11 01:34:09;;;;;;;6.00;4.15;;;;;;;;;;4889972;29;20108;-79
2021/08/11 01:36:40;;;;;;;9.10;4.03;;;;;;;;;;4878578;29;20112;-82
2021/08/11 01:39:08;;;;;;;9.60;3.80;;;;;;;;;;4878944;29;20048;-81
2021/08/11 01:41:35;;;;;;;6.93;3.97;;;;;;;;;;4877704;29;20264;-80
2021/08/11 01:44:01;;;;;;;8.80;4.55;;;;;;;;;;4883858;29;20096;-79
2021/08/11 01:46:28;;;;;;;11.85;3.83;;;;;;;;;;4877397;29;20047;-80
2021/08/11 01:48:56;;;;;;;8.45;3.85;;;;;;;;;;4876239;29;20080;-80
2021/08/11 01:51:21;;;;;;;7.47;4.10;;;;;;;;;;4877538;29;20502;-80
2021/08/11 01:53:47;;;;;;;5.93;3.80;;;;;;;;;;4884189;29;20108;-80
2021/08/11 01:56:14;;;;;;;6.40;4.00;;;;;;;;;;4883500;29;20028;-80
2021/08/11 01:58:40;;;;;;;8.30;4.20;;;;;;;;;;4884975;29;20402;-81
2021/08/11 02:01:10;;;;;;;8.13;4.15;;;;;;;;;;4888883;29;20116;-80
2021/08/11 02:03:36;;;;;;;10.77;4.00;;;;;;;;;;4880414;29;20111;-81
2021/08/11 02:06:02;;;;;;;8.05;4.00;;;;;;;;;;4888899;29;20032;-81
2021/08/11 02:08:27;;;;;;;7.70;3.83;;;;;;;;;;4888198;29;20036;-81
2021/08/11 02:10:55;;;;;;;5.70;3.90;;;;;;;;;;4892577;29;20031;-80
2021/08/11 02:13:21;;;;;;;6.63;3.50;;;;;;;;;;4884634;29;20429;-80
2021/08/11 02:15:47;;;;;;;6.47;4.18;;;;;;;;;;4881078;29;20021;-79
2021/08/11 02:18:13;;;;;;;8.07;4.03;;;;;;;;;;4881668;29;20044;-79
2021/08/11 02:20:38;;;;;;;7.43;4.10;;;;;;;;;;4883226;29;20096;-80
2021/08/11 02:23:04;;;;;;;10.07;4.20;;;;;;;;;;4885961;29;20025;-79
2021/08/11 02:25:31;;;;;;;7.07;4.03;;;;;;;;;;4881208;29;20567;-79
2021/08/11 02:28:00;;;;;;;7.05;3.90;;;;;;;;;;4892137;29;20384;-79
2021/08/11 02:30:26;;;;;;;;;;;;;;;;;;4885267;29;20029;-80
2021/08/11 02:32:57;;;;;;;7.83;4.20;;;;;;;;;;4881887;29;20281;-80
2021/08/11 02:35:22;;;;;;;6.53;4.55;;;;;;;;;;4887033;29;20056;-80
2021/08/11 02:38:13;;;;;;;9.73;4.30;;;;;;;;;;4885958;29;20029;-80
2021/08/11 02:40:42;;;;;;;7.55;4.05;;;;;;;;;;4884619;29;20388;-80
2021/08/11 02:43:12;;;;;;;6.90;3.97;;;;;;;;;;4886375;29;20017;-80
2021/08/11 02:45:39;;;;;;;6.72;4.15;;;;;;;;;;4888922;29;20494;-80
2021/08/11 02:48:05;;;;;;;7.25;3.92;;;;;;;;;;4884694;29;20496;-80
2021/08/11 02:50:31;;;;;;;7.18;3.97;;;;;;;;;;4879527;29;20407;-80
2021/08/11 02:52:56;;;;;;;7.70;4.10;;;;;;;;;;4859227;29;20029;-80
2021/08/11 02:55:22;;;;;;;6.57;4.00;;;;;;;;;;4880592;29;20488;-80
2021/08/11 02:57:49;;;;;;;8.70;4.13;;;;;;;;;;4882138;29;20036;-80
2021/08/11 03:00:14;;;;;;;7.43;3.45;;;;;;;;;;4881180;29;20258;-80
2021/08/11 03:02:39;;;;;;;7.18;4.20;;;;;;;;;;4882770;29;20041;-79
2021/08/11 03:05:05;;;;;;;7.97;4.10;;;;;;;;;;4881797;29;20084;-79
2021/08/11 03:07:31;;;;;;;9.50;4.65;;;;;;;;;;4877643;29;20023;-80
2021/08/11 03:09:56;;;;;;;10.00;4.32;;;;;;;;;;4883750;29;20112;-80
2021/08/11 03:12:22;;;;;;;7.50;4.13;;;;;;;;;;4884161;29;20484;-80
2021/08/11 03:14:48;;;;;;;9.52;4.22;;;;;;;;;;4887671;29;20032;-79
2021/08/11 03:17:15;;;;;;;6.60;3.88;;;;;;;;;;4879412;29;20029;-79
2021/08/11 03:19:40;;;;;;;16.55;5.32;;;;;;;;;;4885453;29;20749;-80
2021/08/11 03:22:07;;;;;;;7.00;4.57;;;;;;;;;;4885290;29;20028;-79
2021/08/11 03:24:32;;;;;;;5.90;4.32;;;;;;;;;;4888234;29;20131;-79
2021/08/11 03:26:57;;;;;;;6.13;4.13;;;;;;;;;;4881269;29;20100;-80
2021/08/11 03:29:23;;;;;;;7.67;4.00;;;;;;;;;;4882752;29;20063;-80
2021/08/11 03:31:48;;;;;;;8.95;4.07;;;;;;;;;;4884005;29;20273;-80
2021/08/11 03:34:13;;;;;;;8.00;4.43;;;;;;;;;;4858712;29;20029;-80
2021/08/11 03:36:39;;;;;;;10.57;4.30;;;;;;;;;;4877752;29;20757;-80
2021/08/11 03:39:04;;;;;;;8.20;4.07;;;;;;;;;;4887786;29;20048;-79
2021/08/11 03:41:29;;;;;;;6.97;4.47;;;;;;;;;;4880511;29;20262;-79
2021/08/11 03:43:55;;;;;;;10.17;4.53;;;;;;;;;;4880245;29;20097;-79
2021/08/11 03:46:20;;;;;;;8.85;4.63;;;;;;;;;;4883619;29;20024;-80
2021/08/11 03:48:45;;;;;;;8.65;4.45;;;;;;;;;;4878643;29;20025;-80
2021/08/11 03:51:11;;;;;;;10.45;3.97;;;;;;;;;;4881162;29;20555;-80
2021/08/11 03:53:38;;;;;;;6.25;3.95;;;;;;;;;;4884491;29;20020;-79
2021/08/11 03:56:04;;;;;;;5.95;4.20;;;;;;;;;;4878538;29;20733;-80
2021/08/11 03:58:29;;;;;;;8.52;4.43;;;;;;;;;;4880800;29;20188;-79
2021/08/11 04:00:54;;;;;;;5.97;4.17;;;;;;;;;;4885937;29;20468;-78
2021/08/11 04:03:20;;;;;;;9.05;4.50;;;;;;;;;;4877823;29;20037;-79
2021/08/11 04:05:45;;;;;;;7.90;3.75;;;;;;;;;;4880711;29;20021;-79
2021/08/11 04:08:11;;;;;;;16.60;5.60;;;;;;;;;;4883989;29;20020;-79
2021/08/11 04:10:36;;;;;;;10.82;3.88;;;;;;;;;;4880983;29;20764;-79
2021/08/11 04:13:02;;;;;;;7.75;3.85;;;;;;;;;;4883713;29;20075;-79
2021/08/11 04:15:27;;;;;;;7.53;4.18;;;;;;;;;;4881474;29;20085;-79
2021/08/11 04:17:52;;;;;;;7.90;4.47;;;;;;;;;;4880827;29;20021;-81
2021/08/11 04:20:20;;;;;;;9.25;3.92;;;;;;;;;;4883069;29;20021;-79
2021/08/11 04:22:45;;;;;;;7.40;4.07;;;;;;;;;;4882194;29;20742;-80
2021/08/11 04:25:10;;;;;;;6.72;4.35;;;;;;;;;;4879775;29;20120;-80
2021/08/11 04:27:36;;;;;;;10.70;4.75;;;;;;;;;;4879901;29;20025;-80
2021/08/11 04:30:02;;;;;;;5.85;4.00;;;;;;;;;;4877677;29;20029;-80
2021/08/11 04:32:27;;;;;;;7.25;3.88;;;;;;;;;;4883896;29;20021;-80
2021/08/11 04:34:52;;;;;;;7.20;4.20;;;;;;;;;;4885190;29;20021;-80
2021/08/11 04:37:18;;;;;;;7.85;4.13;;;;;;;;;;4883829;29;20015;-80
2021/08/11 04:39:43;;;;;;;8.35;4.20;;;;;;;;;;4874431;29;20117;-79
2021/08/11 04:42:08;;;;;;;9.32;4.00;;;;;;;;;;4886485;29;20119;-80
2021/08/11 04:44:34;;;;;;;7.05;4.65;;;;;;;;;;4880577;29;20029;-80
2021/08/11 04:47:01;;;;;;;8.82;4.53;;;;;;;;;;4878627;29;20021;-80
2021/08/11 04:49:26;;;;;;;8.10;4.70;;;;;;;;;;4876652;29;20035;-80
2021/08/11 04:51:51;;;;;;;8.18;4.72;;;;;;;;;;4884224;29;20032;-80
2021/08/11 04:54:16;;;;;;;9.47;5.23;;;;;;;;;;4888888;29;20036;-80
2021/08/11 04:56:42;;;;;;;6.55;4.10;;;;;;;;;;4882522;29;20024;-80
2021/08/11 04:59:07;;;;;;;6.77;4.47;;;;;;;;;;4879289;29;20030;-81
2021/08/11 05:01:32;;;;;;;8.75;4.35;;;;;;;;;;4870301;29;20032;-79
2021/08/11 05:03:58;;;;;;;9.83;4.70;;;;;;;;;;4874549;29;20025;-81
2021/08/11 05:06:23;;;;;;;10.60;4.63;;;;;;;;;;4878390;29;20274;-80
2021/08/11 05:08:49;;;;;;;10.35;4.72;;;;;;;;;;4859821;29;20124;-80
2021/08/11 05:11:14;;;;;;;10.15;4.57;;;;;;;;;;4879866;29;20103;-80
2021/08/11 05:13:39;;;;;;;8.27;4.55;;;;;;;;;;4884979;29;20028;-81
2021/08/11 05:16:05;;;;;;;7.60;4.50;;;;;;;;;;4890328;29;20028;-80
2021/08/11 05:18:30;;;;;;;9.43;4.57;;;;;;;;;;4877780;29;20025;-79
2021/08/11 05:20:55;;;;;;;6.15;4.00;;;;;;;;;;4879761;29;20032;-80
2021/08/11 05:23:20;;;;;;;7.67;4.03;;;;;;;;;;4879916;29;20458;-80
2021/08/11 05:25:47;;;;;;;6.88;3.60;;;;;;;;;;4873962;29;20269;-80
2021/08/11 05:28:12;;;;;;;9.00;4.20;;;;;;;;;;4879969;29;20108;-80
2021/08/11 05:30:41;;;;;;;12.68;4.40;;;;;;;;;;4881384;29;20025;-80
2021/08/11 05:33:07;;;;;;;10.40;4.82;;;;;;;;;;4882355;29;20372;-81
2021/08/11 05:35:32;;;;;;;9.23;4.57;;;;;;;;;;4887175;29;20029;-81
2021/08/11 05:37:58;;;;;;;15.20;10.38;;;;;;;;;;4881814;29;20032;-80
2021/08/11 05:40:23;;;;;;;10.50;6.40;;;;;;;;;;4878981;29;20028;-80
2021/08/11 05:42:48;;;;;;;9.05;4.80;;;;;;;;;;4886840;29;20024;-80
2021/08/11 05:45:13;;;;;;;12.47;5.03;;;;;;;;;;4885729;29;20040;-80
2021/08/11 05:47:39;;;;;;;8.68;4.28;;;;;;;;;;4873502;29;20268;-82
2021/08/11 05:50:05;;;;;;;9.20;4.93;;;;;;;;;;4878686;29;20032;-79
2021/08/11 05:52:31;;;;;;;10.15;4.47;;;;;;;;;;4883435;29;20375;-78
2021/08/11 05:54:56;;;;;;;8.63;4.97;;;;;;;;;;4884353;29;20029;-78
2021/08/11 05:57:21;;;;;;;12.73;5.55;;;;;;;;;;4885559;29;20961;-78
2021/08/11 05:59:48;;;;;;;10.10;5.22;;;;;;;;;;4878137;29;20060;-77
2021/08/11 06:02:13;;;;;;;7.85;4.40;;;;;;;;;;4876620;29;20392;-76
2021/08/11 06:04:38;;;;;;;8.30;4.75;;;;;;;;;;4868353;29;20025;-77
2021/08/11 06:07:04;;;;;;;7.73;4.70;;;;;;;;;;4869799;29;20472;-77
2021/08/11 06:09:35;;;;;;;9.55;5.22;;;;;;;;;;4873989;29;20507;-77
2021/08/11 06:12:01;;;;;;;6.68;4.20;;;;;;;;;;4879628;29;20083;-76
2021/08/11 06:14:29;;;;;;;9.25;4.10;;;;;;;;;;4874928;29;20104;-76
2021/08/11 06:16:54;;;;;;;14.13;8.77;;;;;;;;;;4867598;29;20345;-77
2021/08/11 06:19:31;;;;;;;12.55;7.00;;;;;;;;;;4873039;29;20037;-76
2021/08/11 06:22:06;;;;;;;10.00;5.30;;;;;;;;;;4874462;29;20056;-77
2021/08/11 06:24:40;;;;;;;8.30;4.47;;;;;;;;;;4875311;29;20112;-75
2021/08/11 06:27:21;;;;;;;11.85;4.95;;;;;;;;;;4876299;29;20044;-76
2021/08/11 06:29:46;;;;;;;11.02;5.03;;;;;;;;;;4876940;29;20484;-76
2021/08/11 06:32:11;;;;;;;9.37;4.70;;;;;;;;;;4878679;29;20509;-77
2021/08/11 06:34:37;;;;;;;9.23;4.70;;;;;;;;;;4885334;29;20277;-76
2021/08/11 06:37:02;;;;;;;7.25;4.18;;;;;;;;;;4876281;29;20572;-77
2021/08/11 06:39:27;;;;;;;8.25;4.90;;;;;;;;;;4875596;29;20709;-76
2021/08/11 06:41:52;;;;;;;8.63;5.60;;;;;;;;;;4886597;29;20436;-76
2021/08/11 06:44:18;;;;;;;10.27;4.63;;;;;;;;;;4881614;29;20356;-75
2021/08/11 06:46:43;;;;;;;9.47;4.53;;;;;;;;;;4877503;29;20024;-76
2021/08/11 06:49:08;;;;;;;9.13;4.67;;;;;;;;;;4877965;29;20300;-76
2021/08/11 06:51:33;;;;;;;8.63;4.57;;;;;;;;;;4876641;29;20338;-76
2021/08/11 06:53:59;;;;;;;7.72;4.43;;;;;;;;;;4881713;29;20037;-76
2021/08/11 06:56:24;;;;;;;8.32;4.00;;;;;;;;;;4884020;29;20085;-76
2021/08/11 06:59:02;;;;;;;7.95;4.60;;;;;;;;;;4878719;29;20196;-78
2021/08/11 07:01:28;;;;;;;7.57;4.10;;;;;;;;;;4873585;29;20052;-78
2021/08/11 07:03:53;;;;;;;11.83;8.37;;;;;;;;;;4882265;29;20037;-77
2021/08/11 07:06:18;;;;;;;21.63;14.90;;;;;;;;;;4879989;29;20680;-77
2021/08/11 07:08:44;;;;;;;10.30;6.47;;;;;;;;;;4877608;29;20269;-77
2021/08/11 07:11:09;;;;;;;8.73;4.50;;;;;;;;;;4879284;29;20304;-77
2021/08/11 07:13:34;;;;;;;7.37;4.37;;;;;;;;;;4882051;29;20061;-77
2021/08/11 07:15:59;;;;;;;8.43;4.33;;;;;;;;;;4880525;29;20292;-77
2021/08/11 07:18:24;;;;;;;9.37;5.30;;;;;;;;;;4879724;29;20388;-77
2021/08/11 07:20:50;;;;;;;7.67;4.10;;;;;;;;;;4878953;29;20802;-77
2021/08/11 07:23:15;;;;;;;8.13;3.78;;;;;;;;;;4884469;29;20553;-77
2021/08/11 07:25:40;;;;;;;9.17;4.53;;;;;;;;;;4876231;29;20077;-78
2021/08/11 07:28:06;;;;;;;12.52;4.28;;;;;;;;;;4874123;29;20752;-77
2021/08/11 07:30:31;;;;;;;16.90;4.57;;;;;;;;;;4874378;29;20025;-77
2021/08/11 07:32:56;;;;;;;7.38;4.32;;;;;;;;;;4873310;29;20032;-77
2021/08/11 07:35:21;;;;;;;4.17;3.20;;;;;;;;;;4879105;29;21430;-77
2021/08/11 07:37:54;;;;;;;9.38;4.10;;;;;;;;;;4879915;29;20476;-77
2021/08/11 07:40:20;;;;;;;8.82;4.10;;;;;;;;;;4882216;29;20020;-78
2021/08/11 07:42:45;;;;;;;6.28;3.95;;;;;;;;;;4883720;29;20160;-77
2021/08/11 07:45:11;;;;;;;6.55;4.03;;;;;;;;;;4884015;29;20108;-77
2021/08/11 07:47:36;;;;;;;6.38;3.83;;;;;;;;;;4885940;29;20548;-76
2021/08/11 07:50:02;;;;;;;9.13;4.43;;;;;;;;;;4879392;29;20032;-77
2021/08/11 07:52:27;;;;;;;7.05;3.80;;;;;;;;;;4887380;29;20025;-77
2021/08/11 07:54:53;;;;;;;7.55;3.80;;;;;;;;;;4883791;29;20119;-77
2021/08/11 07:57:18;;;;;;;8.20;3.90;;;;;;;;;;4877758;29;20432;-78
2021/08/11 07:59:43;;;;;;;16.40;12.53;;;;;;;;;;4882734;29;20037;-79
2021/08/11 08:02:11;;;;;;;6.35;4.28;;;;;;;;;;4875202;29;20031;-78
2021/08/11 08:04:36;;;;;;;6.43;4.03;;;;;;;;;;4888887;29;20542;-78
2021/08/11 08:07:01;;;;;;;6.47;4.10;;;;;;;;;;4878208;29;20017;-79
2021/08/11 08:09:26;;;;;;;6.15;3.58;;;;;;;;;;4887401;29;20491;-79
2021/08/11 08:11:52;;;;;;;8.27;3.53;;;;;;;;;;4885221;29;20033;-78
2021/08/11 08:14:17;;;;;;;6.67;3.73;;;;;;;;;;4878183;29;20036;-78
2021/08/11 08:16:42;;;;;;;7.53;3.83;;;;;;;;;;4882310;29;20073;-78
2021/08/11 08:19:07;;;;;;;8.20;3.87;;;;;;;;;;4883772;29;20120;-77
2021/08/11 08:21:32;;;;;;;4.17;3.23;;;;;;;;;;4886533;29;20017;-77
2021/08/11 08:23:58;;;;;;;7.03;4.33;;;;;;;;;;4879322;29;20453;-77
2021/08/11 08:26:23;;;;;;;7.55;4.18;;;;;;;;;;4888616;29;20296;-77
2021/08/11 08:28:49;;;;;;;7.50;4.13;;;;;;;;;;4878500;29;20416;-77
2021/08/11 08:31:14;;;;;;;9.52;4.03;;;;;;;;;;4882771;29;20757;-77
2021/08/11 08:33:40;;;;;;;6.95;3.72;;;;;;;;;;4878860;29;20037;-77
2021/08/11 08:36:06;;;;;;;7.32;3.75;;;;;;;;;;4882085;29;20032;-78
2021/08/11 08:38:31;;;;;;;8.70;4.20;;;;;;;;;;4870679;29;20437;-79
2021/08/11 08:40:56;;;;;;;6.68;3.55;;;;;;;;;;4878098;29;20344;-78
2021/08/11 08:43:22;;;;;;;7.68;3.75;;;;;;;;;;4886273;29;20020;-78
2021/08/11 08:45:48;;;;;;;10.23;3.63;;;;;;;;;;4885116;29;20028;-78
2021/08/11 08:48:13;;;;;;;8.07;4.03;;;;;;;;;;4881098;29;20652;-78
2021/08/11 08:50:40;;;;;;;6.70;3.92;;;;;;;;;;4873235;29;20025;-78
2021/08/11 08:53:05;;;;;;;6.60;3.65;;;;;;;;;;4878556;29;20052;-77
2021/08/11 08:55:31;;;;;;;7.38;3.97;;;;;;;;;;4883061;29;20028;-78
2021/08/11 08:57:57;;;;;;;6.97;3.72;;;;;;;;;;4886649;29;20370;-80
2021/08/11 09:00:23;;;;;;;7.25;3.65;;;;;;;;;;4877874;29;20020;-78
2021/08/11 09:02:48;;;;;;;7.43;3.95;;;;;;;;;;4883337;29;20045;-78
2021/08/11 09:05:14;;;;;;;8.80;4.10;;;;;;;;;;4881564;29;20024;-78
2021/08/11 09:07:49;;;;;;;5.28;3.55;;;;;;;;;;4878494;29;20108;-78
2021/08/11 09:10:22;;;;;;;5.65;3.95;;;;;;;;;;4878226;29;20315;-79
2021/08/11 09:12:48;;;;;;;13.98;9.48;;;;;;;;;;4879092;29;20566;-78
2021/08/11 09:15:25;;;;;;;7.85;5.47;;;;;;;;;;4888097;29;20044;-79
2021/08/11 09:17:51;;;;;;;6.25;4.75;;;;;;;;;;4874069;29;20384;-79
2021/08/11 09:20:21;;;;;;;6.95;4.45;;;;;;;;;;4875858;29;20029;-77
2021/08/11 09:22:48;;;;;;;10.55;4.68;;;;;;;;;;4873445;29;20088;-79
2021/08/11 09:25:14;;;;;;;7.03;4.28;;;;;;;;;;4880860;29;20721;-79
2021/08/11 09:27:40;;;;;;;6.30;4.25;;;;;;;;;;4890398;29;20021;-79
2021/08/11 09:30:07;;;;;;;6.75;3.85;;;;;;;;;;4879371;29;20364;-79
2021/08/11 09:32:47;;;;;;;8.05;4.75;;;;;;;;;;4878301;29;20036;-80
2021/08/11 09:35:13;;;;;;;6.72;4.18;;;;;;;;;;4884429;29;20375;-79
2021/08/11 09:37:40;;;;;;;6.28;4.13;;;;;;;;;;4878787;29;20047;-78
2021/08/11 09:40:19;;;;;;;5.22;3.70;;;;;;;;;;4879570;29;20373;-79
2021/08/11 09:42:45;;;;;;;9.63;5.95;;;;;;;;;;4880392;29;20407;-79
2021/08/11 09:45:11;;;;;;;9.30;6.35;;;;;;;;;;4879184;29;20116;-79
2021/08/11 09:47:37;;;;;;;6.00;4.20;;;;;;;;;;4877941;29;20137;-79
2021/08/11 09:50:03;;;;;;;5.93;4.25;;;;;;;;;;4884790;29;20590;-79
2021/08/11 09:52:45;;;;;;;7.85;4.28;;;;;;;;;;4880970;29;20391;-79
2021/08/11 09:55:12;;;;;;;7.18;4.47;;;;;;;;;;4874094;29;20619;-78
2021/08/11 09:57:37;;;;;;;7.25;3.83;;;;;;;;;;4879199;29;20422;-78
2021/08/11 10:00:03;;;;;;;5.50;3.15;;;;;;;;;;4879708;29;20028;-79
2021/08/11 10:02:28;;;;;;;9.18;3.88;;;;;;;;;;4877473;29;20049;-78
2021/08/11 10:04:53;;;;;;;5.70;3.67;;;;;;;;;;4880198;29;20024;-78
2021/08/11 10:07:18;;;;;;;6.00;4.33;;;;;;;;;;4883760;29;20100;-78
2021/08/11 10:09:59;;;;;;;6.43;3.70;;;;;;;;;;4880723;29;20116;-78
2021/08/11 10:12:26;;;;;;;5.20;3.42;;;;;;;;;;4882676;29;20391;-78
2021/08/11 10:14:51;;;;;;;8.57;3.97;;;;;;;;;;4875946;29;20637;-79
2021/08/11 10:17:17;;;;;;;5.43;3.60;;;;;;;;;;4880798;29;20021;-79
2021/08/11 10:19:43;;;;;;;8.15;3.85;;;;;;;;;;4881611;29;20029;-80
2021/08/11 10:22:11;;;;;;;5.97;4.05;;;;;;;;;;4879293;29;20028;-80
2021/08/11 10:24:38;;;;;;;11.10;6.15;;;;;;;;;;4877958;29;20304;-79
2021/08/11 10:27:05;;;;;;;11.23;5.35;;;;;;;;;;4878300;29;20021;-78
2021/08/11 10:29:31;;;;;;;10.90;7.15;;;;;;;;;;4879284;29;20424;-79
2021/08/11 10:31:57;;;;;;;7.47;4.90;;;;;;;;;;4880098;29;20036;-78
2021/08/11 10:34:23;;;;;;;6.85;3.75;;;;;;;;;;4882234;29;20540;-78
2021/08/11 10:36:48;;;;;;;5.32;3.78;;;;;;;;;;4878179;29;20697;-79
2021/08/11 10:39:16;;;;;;;8.30;3.93;;;;;;;;;;4878492;29;20033;-79
2021/08/11 10:41:42;;;;;;;8.37;4.47;;;;;;;;;;4879096;29;20265;-79
2021/08/11 10:44:15;;;;;;;6.85;3.95;;;;;;;;;;4880022;29;20024;-79
2021/08/11 10:46:42;;;;;;;7.28;4.50;;;;;;;;;;4878171;29;20021;-79
2021/08/11 10:49:08;;;;;;;6.68;3.72;;;;;;;;;;4878409;29;20028;-80
2021/08/11 10:51:41;;;;;;;6.80;3.85;;;;;;;;;;4879597;29;20256;-78
2021/08/11 10:54:07;;;;;;;8.88;4.20;;;;;;;;;;4876227;29;20048;-78
2021/08/11 10:56:46;;;;;;;7.47;4.22;;;;;;;;;;4878495;29;20040;-79
2021/08/11 10:59:31;;;;;;;10.02;4.57;;;;;;;;;;4876247;29;20570;-79
2021/08/11 11:01:58;;;;;;;9.68;3.90;;;;;;;;;;4870394;29;20057;-81
2021/08/11 11:04:42;;;;;;;6.55;3.95;;;;;;;;;;4877904;29;20040;-80
2021/08/11 11:09:36;;;;;;;8.27;3.60;;;;;;;;;;4871184;29;20032;-82
2021/08/11 11:12:17;;;;;;;5.10;3.90;;;;;;;;;;4875547;29;20128;-79
2021/08/11 11:14:43;;;;;;;8.43;3.92;;;;;;;;;;4873172;29;20416;-79
2021/08/11 11:17:08;;;;;;;7.65;4.43;;;;;;;;;;4881496;29;20395;-79
2021/08/11 11:19:54;;;;;;;10.88;4.28;;;;;;;;;;4881837;29;20040;-81
2021/08/11 11:22:38;;;;;;;7.05;4.43;;;;;;;;;;4874248;29;20439;-81
2021/08/11 11:25:05;;;;;;;6.43;3.75;;;;;;;;;;4870269;29;20598;-81
2021/08/11 11:27:42;;;;;;;6.22;4.25;;;;;;;;;;4872094;29;20028;-83
2021/08/11 11:30:12;;;;;;;7.88;4.10;;;;;;;;;;4876728;29;20387;-80
2021/08/11 11:32:37;;;;;;;6.07;4.38;;;;;;;;;;4878616;29;20481;-80
2021/08/11 11:35:16;;;;;;;5.25;3.67;;;;;;;;;;4876375;29;20035;-80
2021/08/11 11:37:42;;;;;;;7.28;4.13;;;;;;;;;;4875562;29;20117;-80
2021/08/11 11:40:08;;;;;;;6.78;4.07;;;;;;;;;;4882211;29;20129;-80
2021/08/11 11:42:33;;;;;;;5.97;3.75;;;;;;;;;;4877742;29;20112;-79
2021/08/11 11:44:58;;;;;;;6.40;4.15;;;;;;;;;;4886195;29;20028;-79
2021/08/11 11:47:42;;;;;;;11.20;4.00;;;;;;;;;;4880252;29;20062;-79
2021/08/11 11:50:28;;;;;;;7.85;4.35;;;;;;;;;;4876032;29;20029;-80
2021/08/11 11:53:06;;;;;;;6.60;3.95;;;;;;;;;;4874477;29;20424;-79
2021/08/11 11:55:42;;;;;;;11.10;4.35;;;;;;;;;;4878043;29;20341;-78
2021/08/11 11:58:09;;;;;;;9.73;4.13;;;;;;;;;;4874070;29;20032;-79
2021/08/11 12:00:35;;;;;;;6.88;3.83;;;;;;;;;;4879476;29;20372;-81
2021/08/11 12:03:01;;;;;;;7.88;3.63;;;;;;;;;;4876295;29;20045;-80
2021/08/11 12:05:26;;;;;;;6.57;3.63;;;;;;;;;;4874014;29;21676;-79
2021/08/11 12:07:51;;;;;;;5.82;3.60;;;;;;;;;;4876563;29;20116;-78
2021/08/11 12:10:26;;;;;;;8.63;3.83;;;;;;;;;;4876146;29;20082;-79
2021/08/11 12:13:01;;;;;;;10.40;4.00;;;;;;;;;;4879297;29;20025;-79
2021/08/11 12:15:30;;;;;;;9.82;4.82;;;;;;;;;;4877053;29;20053;-79
2021/08/11 12:17:57;;;;;;;5.95;3.95;;;;;;;;;;4875849;29;20386;-79
2021/08/11 12:20:26;;;;;;;8.85;3.90;;;;;;;;;;4864005;29;20032;-85
2021/08/11 12:22:51;;;;;;;8.38;3.97;;;;;;;;;;4878379;29;20437;-84
2021/08/11 12:25:20;;;;;;;6.85;4.47;;;;;;;;;;4877399;29;20072;-85
2021/08/11 12:28:04;;;;;;;8.40;3.53;;;;;;;;;;4879440;29;20460;-80
2021/08/11 12:30:29;;;;;;;7.68;3.95;;;;;;;;;;4877502;29;20029;-80
2021/08/11 12:32:56;;;;;;;6.68;3.83;;;;;;;;;;4878243;29;20036;-82
2021/08/11 12:35:22;;;;;;;7.35;3.75;;;;;;;;;;4880321;29;20471;-81
2021/08/11 12:37:47;;;;;;;9.15;4.05;;;;;;;;;;4877372;29;20129;-84
2021/08/11 12:40:41;;;;;;;7.20;4.00;;;;;;;;;;4874609;29;20048;-83
2021/08/11 12:43:07;;;;;;;8.85;4.20;;;;;;;;;;4864163;29;20033;-79
2021/08/11 12:45:49;;;;;;;10.05;3.80;;;;;;;;;;4882506;29;20029;-81
2021/08/11 12:48:21;;;;;;;6.30;3.90;;;;;;;;;;4875391;29;20587;-80
2021/08/11 12:50:46;;;;;;;7.50;4.32;;;;;;;;;;4876086;29;20047;-82
2021/08/11 12:53:21;;;;;;;5.37;3.63;;;;;;;;;;4876736;29;20480;-80
2021/08/11 12:55:46;;;;;;;7.28;3.70;;;;;;;;;;4875704;29;20353;-81
2021/08/11 12:58:11;;;;;;;5.93;3.50;;;;;;;;;;4876873;29;20021;-86
2021/08/11 13:00:38;;;;;;;8.10;3.20;;;;;;;;;;4876957;29;20769;-83
2021/08/11 13:03:03;;;;;;;6.80;4.00;;;;;;;;;;4885197;29;20386;-81
2021/08/11 13:05:29;;;;;;;7.07;4.20;;;;;;;;;;4879400;29;20096;-86
2021/08/11 13:07:56;;;;;;;8.20;3.45;;;;;;;;;;4877321;29;20144;-86
2021/08/11 13:10:22;;;;;;;4.82;3.72;;;;;;;;;;4881796;29;20080;-82
2021/08/11 13:12:47;;;;;;;6.95;3.70;;;;;;;;;;4887637;29;20529;-82
2021/08/11 13:15:30;;;;;;;7.72;4.28;;;;;;;;;;4878734;29;20069;-83
2021/08/11 13:18:02;;;;;;;10.95;3.85;;;;;;;;;;4883779;29;20452;-84
2021/08/11 13:20:31;;;;;;;6.70;3.60;;;;;;;;;;4881190;29;19920;-84
2021/08/11 13:22:59;;;;;;;6.10;3.75;;;;;;;;;;4882148;29;20375;-84
2021/08/11 13:25:25;;;;;;;8.65;4.13;;;;;;;;;;4885941;29;20021;-83
2021/08/11 13:27:51;;;;;;;6.10;3.83;;;;;;;;;;4883566;29;20569;-83
2021/08/11 13:30:18;;;;;;;6.20;3.42;;;;;;;;;;4871958;29;20029;-82
2021/08/11 13:32:44;;;;;;;8.82;4.07;;;;;;;;;;4884437;29;20104;-82
2021/08/11 13:35:10;;;;;;;6.40;3.63;;;;;;;;;;4878480;29;20604;-80
2021/08/11 13:37:53;;;;;;;4.78;3.30;;;;;;;;;;4882343;29;20036;-85
2021/08/11 13:40:21;;;;;;;4.20;3.22;;;;;;;;;;4877100;29;20036;-84
2021/08/11 13:42:46;;;;;;;6.80;3.80;;;;;;;;;;4877275;29;20339;-82
2021/08/11 13:45:12;;;;;;;6.90;3.93;;;;;;;;;;4884828;29;20012;-81
2021/08/11 13:47:38;;;;;;;7.07;3.83;;;;;;;;;;4886028;29;20021;-86
2021/08/11 13:50:04;;;;;;;6.68;4.55;;;;;;;;;;4876547;29;20025;-81
2021/08/11 13:52:29;;;;;;;8.25;4.47;;;;;;;;;;4873407;29;20064;-76
2021/08/11 13:54:54;;;;;;;9.10;4.27;;;;;;;;;;4880592;29;20080;-79
2021/08/11 13:57:20;;;;;;;6.95;3.70;;;;;;;;;;4875168;29;20030;-78
2021/08/11 13:59:45;;;;;;;6.17;3.80;;;;;;;;;;4878909;29;20033;-80
2021/08/11 14:02:10;;;;;;;7.10;3.50;;;;;;;;;;4881097;29;20367;-80
2021/08/11 14:04:36;;;;;;;8.15;3.75;;;;;;;;;;4888044;29;20035;-80
2021/08/11 14:07:02;;;;;;;6.80;3.67;;;;;;;;;;4879646;29;20116;-81
2021/08/11 14:09:28;;;;;;;7.60;3.70;;;;;;;;;;4881845;29;20089;-81
2021/08/11 14:11:53;;;;;;;6.18;3.83;;;;;;;;;;4878998;29;20369;-80
2021/08/11 14:14:21;;;;;;;7.80;3.83;;;;;;;;;;4879185;29;20033;-80
2021/08/11 14:16:46;;;;;;;6.95;4.43;;;;;;;;;;4880753;29;20274;-80
2021/08/11 14:19:12;;;;;;;24.13;21.33;;;;;;;;;;4879336;29;20516;-81
2021/08/11 14:21:37;;;;;;;9.13;5.38;;;;;;;;;;4880841;29;20025;-80
2021/08/11 14:24:03;;;;;;;7.35;3.72;;;;;;;;;;4888846;29;20029;-80
2021/08/11 14:26:28;;;;;;;6.80;4.07;;;;;;;;;;4884055;29;20016;-82
2021/08/11 14:28:54;;;;;;;5.40;3.70;;;;;;;;;;4883596;29;20108;-80
2021/08/11 14:31:20;;;;;;;9.40;3.78;;;;;;;;;;4882814;29;20380;-81
2021/08/11 14:33:48;;;;;;;7.18;3.95;;;;;;;;;;4886820;29;20025;-81
2021/08/11 14:36:13;;;;;;;8.32;4.07;;;;;;;;;;4877261;29;20512;-80
2021/08/11 14:38:38;;;;;;;7.23;4.10;;;;;;;;;;4886443;29;20040;-81
2021/08/11 14:41:04;;;;;;;5.57;4.00;;;;;;;;;;4883739;29;20032;-81
2021/08/11 14:43:29;;;;;;;6.13;3.90;;;;;;;;;;4889231;29;20269;-80